AirNav   Everest Fuels
 
 442 users online  

NR02 Jordan Field Airport
Mount Gilead, North Carolina, USA

GOING TO MOUNT GILEAD?


FAA INFORMATION EFFECTIVE 05 DECEMBER 2019

Location

FAA Identifier: NR02
Lat/Long: 35-14-16.0000N 079-59-44.0000W
35-14.266667N 079-59.733333W
35.2377778,-79.9955556
(estimated)
Elevation: 600 ft. / 183 m (estimated)
From city: 1 mile NE of MOUNT GILEAD, NC
Time zone: UTC -5 (UTC -4 during Daylight Saving Time)
Zip code: 27306

Airport Operations

Airport use: Private use. Permission required prior to landing
Activation date: 04/2007
Control tower: no
ARTCC: WASHINGTON CENTER
FSS: JONESBORO FLIGHT SERVICE STATION
Attendance: UNATNDD
Wind indicator: yes
Segmented circle: no

Airport Communications

WX AWOS-3 at VUJ (13 nm NW): 128.175 (704-986-2097)
WX AWOS-3 at AFP (14 nm S): 119.325 (704-695-0623)

Nearby radio navigation aids

VOR radial/distance  VOR name  Freq  Var
SDZr277/20.0SANDHILLS VORTAC111.8003W
CTFr024/37.8CHESTERFIELD VOR/DME108.2003W
LIBr212/39.2LIBERTY VORTAC113.0003W

 
NDB name  Hdg/Dist  Freq  Var  ID
MACKALL303/28.027806WHFF .... ..-. ..-.
BENNETTSVILLE349/39.223008WBES -... . ...

Airport Services

Runway Information

Runway 4/22

Dimensions: 3900 x 70 ft. / 1189 x 21 m
Surface: turf
RUNWAY 4  RUNWAY 22
Traffic pattern: leftleft
Obstructions: 100 ft. trees, 20 ft. from runway100 ft. trees, 20 ft. from runway

Airport Ownership and Management from official FAA records

Ownership: Privately-owned
Owner: JORDAN LUMBER COMPANY
1939 N. C. 109 S.
MOUNT GILEAD, NC 27306
Phone 910-439-6121
Manager: JACK JORDAN
1939 N. C.109 S.
MOUNT GILEAD, NC 27306
Phone (910) 439-8127

Additional Remarks

FOR CD CTC WASHINGTON ARTCC AT 703-771-3587.

Instrument Procedures

There are no published instrument procedures at NR02.

Some nearby airports with instrument procedures:

KVUJ - Stanly County Airport (13 nm NW)
43A - Montgomery County Airport (13 nm NE)
KAFP - Anson County Airport - Jeff Cloud Field (14 nm S)
KRCZ - Richmond County Airport (24 nm SE)
KHBI - Asheboro Regional Airport (25 nm N)
 
Loc | Ops | Rwys | IFR | FBO | Links
Com | Nav | Svcs | Stats | Notes
Area around NR02 (Jordan Field Airport)
 
Road maps at: MapQuest Bing Google
 
Aerial photo
No photo
 
Sectional chart

 
Airport distance calculator
Flying to Jordan Field Airport? Find the distance to fly.

From to NR02

Sunrise and sunset
Times for 13-Dec-2019
 Local
(UTC-5)
 Zulu
(UTC)
Morning civil twilight06:5311:53
Sunrise07:2112:21
Sunset17:0722:07
Evening civil twilight17:3622:36

Current date and time
Zulu (UTC)  13-Dec-2019 06:32:58
Local (UTC-5)  13-Dec-2019 01:32:58
 
METAR
KVUJ 
13nm NW 
130615Z AUTO 01005KT 10SM DZ OVC022 03/M01 A3043 RMK AO2 T00311009
KAFP 
14nm S 
130615Z AUTO 10SM -RA 03/M01 A3038 RMK AO2 T00331007
KRCZ 
24nm SE 
130615Z AUTO 00000KT 10SM -DZ SCT010 BKN014 OVC020 04/M03 A3037 RMK AO2 T00361026
KHBI 
25nm N 
130615Z AUTO 02004KT 10SM SCT026 BKN036 OVC043 03/M03 A3042 RMK AO2 T00311028
TAF
KCLT 
47nm W 
130550Z 1306/1412 03008KT P6SM -RA OVC020 TEMPO 1306/1309 5SM -RA BR OVC015 FM130900 02008KT 5SM -RA BR OVC007 FM131400 02008KT 1 1/2SM -RA BR OVC004 FM140300 01004KT 1 1/2SM -RA BR OVC004 PROB30 1406/1412 3/4SM -RA BR OVC002
KPOB 
48nm E 
130200Z 1302/1408 04004KT 9999 OVC020 540103 QNH3037INS BECMG 1305/1306 04004KT 9999 OVC010 540103 QNH3024INS BECMG 1310/1311 07008KT 8000 -RA OVC004 540103 QNH3020INS BECMG 1314/1315 07012G18KT 4800 RA OVC004 550102 540603 QNH2989INS BECMG 1321/1322 10010KT 8000 -RA OVC004 WS012/13040KT QNH2988INS TEMPO 1322/1402 3200 +RA OVC002 BECMG 1404/1405 25006KT 8000 -RA OVC004 QNH2988INS TX08/1322Z TN03/1305Z
NOTAMs
Click for the latest NOTAMs
NOTAMs are issued by the DoD/FAA and will open in a separate window not controlled by AirNav.

 

 
 

Would you like to see your business listed on this page?

 If your business provides an interesting product or service to pilots, flight crews, aircraft, or users of the Jordan Field Airport, you should consider listing it here.  To start the listing process, click on the button below
 
Add a business
 

Other Pages about Jordan Field Airport

Update a link
 
Copyright © AirNav, LLC. All rights reserved. Privacy Policy  Contact